Time;durP1;ratioP1;P1;durP2;ratioP2;P2;SDS_P1;SDS_P2;PMS_P1;PMS_P2;Temp;Humidity;BMP_temperature;BMP_pressure;BME280_temperature;BME280_humidity;BME280_pressure;Samples;Min_cycle;Max_cycle;Signal;HPM_P1;HPM_P2
2021/04/12 00:02:04;;;;;;;3.70;1.20;;;16.50;76.40;;;;;;5042089;28;20191;-81
2021/04/12 00:04:41;;;;;;;5.40;1.10;;;16.60;74.70;;;;;;5039543;28;20180;-74
2021/04/12 00:08:03;;;;;;;3.07;1.10;;;16.50;73.80;;;;;;5052779;28;20232;-71
2021/04/12 00:11:04;;;;;;;3.77;1.43;;;16.70;74.90;;;;;;5009997;28;20200;-68
2021/04/12 00:13:46;;;;;;;4.13;1.40;;;16.90;73.90;;;;;;5010567;28;20264;-72
2021/04/12 00:16:28;;;;;;;1.90;1.00;;;17.00;74.20;;;;;;5044702;28;20191;-71
2021/04/12 00:19:04;;;;;;;6.33;1.50;;;17.20;73.40;;;;;;5052898;28;20290;-73
2021/04/12 00:21:54;;;;;;;3.27;1.10;;;17.30;73.30;;;;;;5052059;28;20662;-80
2021/04/12 00:24:44;;;;;;;4.20;1.20;;;17.10;73.80;;;;;;5052540;28;20222;-78
2021/04/12 00:27:43;;;;;;;7.90;1.67;;;17.30;73.40;;;;;;5052922;28;20261;-82
2021/04/12 00:30:23;;;;;;;3.50;1.03;;;17.50;72.40;;;;;;5051502;28;20284;-78
2021/04/12 00:32:59;;;;;;;4.63;1.40;;;17.30;72.40;;;;;;5051655;28;20188;-79
2021/04/12 00:35:54;;;;;;;5.43;1.60;;;17.40;73.50;;;;;;5051595;28;20289;-71
2021/04/12 00:38:44;;;;;;;5.40;1.17;;;17.50;72.40;;;;;;5052360;28;20330;-76
2021/04/12 00:41:23;;;;;;;5.90;1.20;;;17.70;71.90;;;;;;5052102;28;20179;-76
2021/04/12 00:44:24;;;;;;;4.80;1.30;;;17.50;72.90;;;;;;5056475;28;20194;-75
2021/04/12 00:47:31;;;;;;;6.77;1.90;;;17.50;72.60;;;;;;5052347;28;20187;-80
2021/04/12 00:50:16;;;;;;;4.53;1.30;;;17.90;72.20;;;;;;5049304;28;20564;-74
2021/04/12 00:53:20;;;;;;;4.53;1.30;;;18.20;72.10;;;;;;5049883;28;20271;-73
2021/04/12 00:56:09;;;;;;;6.10;1.13;;;18.30;72.00;;;;;;5052305;28;20184;-75
2021/04/12 00:59:06;;;;;;;4.60;1.23;;;17.90;71.30;;;;;;5052079;28;20241;-82
2021/04/12 01:01:46;;;;;;;5.13;1.50;;;17.90;71.80;;;;;;5052339;28;20748;-80
2021/04/12 01:04:50;;;;;;;3.97;1.37;;;18.40;71.80;;;;;;5051677;28;20646;-80
2021/04/12 01:07:42;;;;;;;5.93;1.70;;;18.30;71.40;;;;;;5051917;28;20533;-74
2021/04/12 01:10:30;;;;;;;7.17;1.57;;;18.60;71.90;;;;;;5052000;28;20211;-78
2021/04/12 01:13:15;;;;;;;5.17;1.33;;;18.80;71.40;;;;;;5054949;28;20521;-81
2021/04/12 01:16:03;;;;;;;3.73;1.17;;;18.90;71.30;;;;;;5056086;28;20172;-83
2021/04/12 01:18:41;;;;;;;4.57;1.60;;;19.10;70.50;;;;;;5055664;28;20546;-84
2021/04/12 01:21:38;;;;;;;6.23;1.57;;;19.30;70.40;;;;;;5055900;28;20217;-79
2021/04/12 01:24:55;;;;;;;5.47;1.57;;;19.10;68.80;;;;;;5051462;28;20218;-80
2021/04/12 01:27:59;;;;;;;8.13;1.93;;;19.10;69.20;;;;;;5037393;28;20297;-76
2021/04/12 01:30:35;;;;;;;8.37;1.70;;;19.00;68.80;;;;;;5044485;28;20694;-78
2021/04/12 01:33:42;;;;;;;5.13;1.63;;;19.30;69.30;;;;;;5038925;28;20579;-76
2021/04/12 01:36:43;;;;;;;4.93;1.27;;;19.70;69.60;;;;;;5052782;28;20763;-77
2021/04/12 01:39:34;;;;;;;5.07;1.47;;;19.90;67.70;;;;;;5055616;28;20542;-79
2021/04/12 01:42:04;;;;;;;6.07;1.47;;;19.70;67.20;;;;;;5054856;28;20172;-80
2021/04/12 01:45:06;;;;;;;8.70;1.90;;;19.80;66.60;;;;;;5054440;28;20176;-83
2021/04/12 01:47:59;;;;;;;3.77;1.30;;;19.90;66.80;;;;;;5055830;28;20534;-81
2021/04/12 01:50:40;;;;;;;4.07;1.10;;;19.90;66.60;;;;;;5055353;28;20346;-75
2021/04/12 01:53:40;;;;;;;4.80;1.30;;;19.90;66.20;;;;;;5055094;28;20187;-78
2021/04/12 01:56:29;;;;;;;7.10;1.80;;;20.10;65.70;;;;;;5055458;28;20160;-80
2021/04/12 01:59:22;;;;;;;6.70;1.73;;;20.30;65.60;;;;;;5055692;28;20199;-79
2021/04/12 02:02:07;;;;;;;5.53;1.70;;;20.30;64.50;;;;;;5055355;28;20180;-77
2021/04/12 02:05:10;;;;;;;8.47;1.80;;;20.40;64.60;;;;;;5054968;28;20184;-79
2021/04/12 02:07:55;;;;;;;4.40;1.50;;;20.70;64.20;;;;;;5053329;28;20186;-77
2021/04/12 02:10:41;;;;;;;5.50;1.67;;;20.90;64.30;;;;;;5054658;28;20261;-79
2021/04/12 02:13:28;;;;;;;8.77;1.63;;;21.00;63.40;;;;;;5055069;28;20781;-80
2021/04/12 02:16:08;;;;;;;5.23;1.30;;;21.00;63.10;;;;;;5054824;28;20218;-80
2021/04/12 02:18:56;;;;;;;4.00;1.20;;;21.10;63.00;;;;;;5054701;28;20198;-82
2021/04/12 02:21:48;;;;;;;7.00;1.10;;;21.30;62.30;;;;;;5055293;28;20638;-72
2021/04/12 02:24:18;;;;;;;4.30;1.50;;;21.20;63.40;;;;;;5054573;28;20230;-80
2021/04/12 02:27:09;;;;;;;9.40;1.70;;;21.20;62.80;;;;;;5055475;28;20168;-75
2021/04/12 02:30:04;;;;;;;7.67;1.60;;;21.10;62.00;;;;;;5066792;28;20251;-75
2021/04/12 02:32:55;;;;;;;9.60;1.57;;;21.60;62.90;;;;;;5065459;28;20189;-80
2021/04/12 02:35:39;;;;;;;7.60;1.43;;;22.00;60.70;;;;;;5054381;28;20193;-80
2021/04/12 02:38:28;;;;;;;4.23;1.60;;;21.80;60.80;;;;;;5053965;28;20179;-80
2021/04/12 02:41:36;;;;;;;5.70;1.30;;;22.10;60.80;;;;;;5054338;28;20258;-78
2021/04/12 02:44:47;;;;;;;5.00;1.20;;;21.90;60.70;;;;;;5045954;28;20261;-81
2021/04/12 02:47:41;;;;;;;6.93;1.70;;;22.20;60.00;;;;;;5053148;28;20711;-80
2021/04/12 02:50:51;;;;;;;9.97;1.67;;;22.20;59.80;;;;;;5054586;28;20795;-77
2021/04/12 02:53:41;;;;;;;6.80;1.97;;;22.40;59.30;;;;;;5054417;28;20533;-76
2021/04/12 02:56:38;;;;;;;7.37;1.20;;;22.70;58.40;;;;;;5040316;28;20234;-74
2021/04/12 02:59:23;;;;;;;6.63;1.47;;;22.60;58.70;;;;;;5044286;28;20634;-84
2021/04/12 03:02:12;;;;;;;4.30;1.30;;;22.60;57.70;;;;;;5053859;28;20291;-77
2021/04/12 03:05:18;;;;;;;8.70;1.67;;;22.70;58.30;;;;;;5053789;28;20172;-82
2021/04/12 03:08:03;;;;;;;4.20;1.63;;;22.70;58.70;;;;;;5045392;28;20538;-75
2021/04/12 03:10:58;;;;;;;5.50;1.60;;;22.80;59.60;;;;;;5053900;28;20234;-79
2021/04/12 03:13:49;;;;;;;7.67;1.50;;;22.80;59.20;;;;;;5055192;28;20243;-79
2021/04/12 03:16:16;;;;;;;5.63;1.30;;;22.70;59.30;;;;;;5053992;28;20188;-78
2021/04/12 03:19:14;;;;;;;5.33;1.40;;;22.70;59.10;;;;;;5054055;28;20258;-79
2021/04/12 03:22:04;;;;;;;11.40;1.87;;;22.70;58.50;;;;;;5054434;28;20269;-78
2021/04/12 03:24:47;;;;;;;5.30;1.33;;;22.90;58.40;;;;;;5053442;28;20176;-75
2021/04/12 03:28:00;;;;;;;7.13;1.50;;;23.10;57.10;;;;;;5069370;28;20261;-81
2021/04/12 03:30:30;;;;;;;5.90;1.37;;;23.30;56.90;;;;;;5031014;28;20233;-81
2021/04/12 03:33:10;;;;;;;6.73;1.70;;;23.50;56.90;;;;;;5040385;28;20665;-78
2021/04/12 03:35:59;;;;;;;5.90;1.73;;;23.60;57.60;;;;;;5053685;28;20180;-77
2021/04/12 03:38:47;;;;;;;6.70;2.33;;;24.00;56.90;;;;;;5050997;28;20219;-79
2021/04/12 03:41:14;;;;;;;6.00;1.13;;;24.00;56.00;;;;;;5053849;28;20172;-79
2021/04/12 03:44:18;;;;;;;3.73;1.40;;;23.60;55.20;;;;;;5053000;28;20213;-74
2021/04/12 03:47:09;;;;;;;5.93;1.47;;;23.90;56.20;;;;;;5052668;28;20605;-75
2021/04/12 03:49:42;;;;;;;8.17;1.70;;;23.90;56.20;;;;;;5052681;28;20674;-77
2021/04/12 03:52:18;;;;;;;5.47;1.53;;;24.20;56.40;;;;;;5053552;28;20187;-83
2021/04/12 03:55:14;;;;;;;3.00;1.00;;;24.30;55.40;;;;;;5053359;28;20176;-78
2021/04/12 03:58:12;;;;;;;6.23;1.53;;;24.70;54.40;;;;;;5053193;28;20187;-77
2021/04/12 04:00:46;;;;;;;7.67;1.47;;;24.90;54.40;;;;;;5052978;28;20179;-79
2021/04/12 04:03:49;;;;;;;7.97;1.50;;;24.40;54.20;;;;;;5052804;28;20180;-83
2021/04/12 04:06:20;;;;;;;5.50;1.43;;;23.90;55.00;;;;;;5052912;28;20199;-80
2021/04/12 04:08:56;;;;;;;5.57;1.40;;;24.10;54.80;;;;;;5052753;28;20180;-79
2021/04/12 04:11:36;;;;;;;8.77;1.60;;;24.20;54.60;;;;;;5052902;28;20294;-84
2021/04/12 04:14:35;;;;;;;7.37;1.73;;;24.20;55.20;;;;;;5052872;28;20244;-76
2021/04/12 04:17:23;;;;;;;6.40;1.50;;;24.60;54.60;;;;;;5052449;28;20271;-82
2021/04/12 04:20:21;;;;;;;4.13;1.37;;;24.90;54.70;;;;;;5052301;28;20171;-82
2021/04/12 04:23:08;;;;;;;6.83;1.53;;;24.80;54.00;;;;;;5052852;28;20175;-77
2021/04/12 04:25:53;;;;;;;7.13;1.90;;;24.90;54.60;;;;;;5052906;28;20179;-83
2021/04/12 04:28:38;;;;;;;5.23;1.23;;;25.10;54.50;;;;;;5052337;28;20177;-78
2021/04/12 04:31:27;;;;;;;6.53;2.20;;;25.30;54.20;;;;;;5052802;28;20579;-77
2021/04/12 04:34:17;;;;;;;7.87;1.43;;;25.50;53.00;;;;;;5052804;28;20168;-74
2021/04/12 04:37:12;;;;;;;4.63;1.37;;;25.40;52.50;;;;;;5052958;28;20180;-77
2021/04/12 04:40:10;;;;;;;5.60;1.60;;;25.50;52.50;;;;;;5052503;28;20539;-77
2021/04/12 04:43:23;;;;;;;6.57;1.60;;;25.90;53.20;;;;;;5052529;28;20175;-81
2021/04/12 04:46:20;;;;;;;9.03;1.63;;;26.20;52.20;;;;;;5053470;28;20186;-79
2021/04/12 04:48:53;;;;;;;6.27;1.63;;;26.00;51.30;;;;;;5056945;28;20179;-79
2021/04/12 04:51:35;;;;;;;6.77;1.80;;;25.80;52.30;;;;;;5056812;28;20207;-69
2021/04/12 04:54:29;;;;;;;6.20;1.47;;;25.70;52.00;;;;;;5056085;28;20261;-70
2021/04/12 04:57:26;;;;;;;7.30;1.60;;;25.80;51.80;;;;;;5055558;28;20638;-68
2021/04/12 04:59:59;;;;;;;7.80;1.60;;;26.10;52.20;;;;;;5045044;28;20180;-69
2021/04/12 05:02:26;;;;;;;5.93;1.80;;;25.90;52.90;;;;;;5055968;28;20186;-70
2021/04/12 05:05:14;;;;;;;5.00;1.40;;;25.90;52.30;;;;;;5055968;28;20180;-70
2021/04/12 05:07:47;;;;;;;5.23;1.70;;;26.00;52.20;;;;;;5056476;28;20183;-70
2021/04/12 05:10:36;;;;;;;6.80;1.20;;;26.10;51.90;;;;;;5055507;28;20657;-73
2021/04/12 05:13:17;;;;;;;5.50;1.30;;;26.00;51.60;;;;;;5056062;28;20542;-72
2021/04/12 05:16:17;;;;;;;5.63;1.30;;;26.00;51.80;;;;;;5056008;28;20180;-69
2021/04/12 05:19:02;;;;;;;6.60;2.67;;;26.00;51.90;;;;;;5055872;28;20238;-71
2021/04/12 05:21:50;;;;;;;5.47;1.80;;;25.20;51.90;;;;;;5056338;28;20230;-77
2021/04/12 05:24:20;;;;;;;8.13;2.17;;;25.20;52.50;;;;;;5054222;28;20171;-76
2021/04/12 05:27:08;;;;;;;3.47;1.40;;;25.40;52.60;;;;;;5052800;28;20191;-71
2021/04/12 05:29:54;;;;;;;5.43;1.80;;;25.80;52.30;;;;;;5055377;28;20228;-71
2021/04/12 05:32:35;;;;;;;7.10;1.30;;;25.20;51.90;;;;;;5055301;28;20172;-70
2021/04/12 05:35:10;;;;;;;10.27;1.73;;;25.10;52.80;;;;;;5054995;28;20184;-74
2021/04/12 05:37:59;;;;;;;5.93;1.10;;;24.60;54.60;;;;;;5052995;28;20190;-76
2021/04/12 05:40:44;;;;;;;6.10;1.63;;;25.20;52.60;;;;;;5056613;28;20179;-68
2021/04/12 05:43:35;;;;;;;8.97;1.60;;;25.60;53.10;;;;;;5053811;28;20180;-70
2021/04/12 05:46:17;;;;;;;8.30;1.53;;;25.50;53.40;;;;;;5045133;28;20188;-70
2021/04/12 05:49:29;;;;;;;7.53;1.70;;;25.20;53.50;;;;;;5055554;28;20195;-78
2021/04/12 05:52:20;;;;;;;5.40;1.30;;;25.20;53.10;;;;;;5027692;28;20611;-71
2021/04/12 05:54:48;;;;;;;7.00;1.43;;;24.90;54.00;;;;;;5054449;28;20627;-71
2021/04/12 05:57:39;;;;;;;7.07;1.53;;;25.40;53.80;;;;;;5055105;28;20176;-73
2021/04/12 06:00:24;;;;;;;5.43;1.40;;;25.80;52.60;;;;;;5055306;28;20180;-72
2021/04/12 06:02:51;;;;;;;5.57;1.40;;;25.70;53.40;;;;;;5055239;28;20176;-70
2021/04/12 06:05:40;;;;;;;5.53;1.30;;;25.80;53.10;;;;;;5065148;28;20259;-75
2021/04/12 06:08:44;;;;;;;5.63;1.10;;;25.80;52.40;;;;;;5055037;28;20180;-76
2021/04/12 06:11:17;;;;;;;6.83;1.37;;;25.60;53.40;;;;;;5045958;28;20227;-72
2021/04/12 06:14:14;;;;;;;5.47;1.60;;;25.80;52.70;;;;;;5054417;28;20848;-75
2021/04/12 06:17:26;;;;;;;4.10;1.30;;;26.10;52.10;;;;;;5054455;28;20184;-71
2021/04/12 06:20:08;;;;;;;8.43;1.70;;;26.00;52.20;;;;;;5042544;28;20188;-74
2021/04/12 06:22:49;;;;;;;4.90;1.40;;;25.90;51.80;;;;;;5042982;28;20542;-72
2021/04/12 06:25:23;;;;;;;5.00;1.10;;;25.80;52.40;;;;;;5054272;28;20176;-78
2021/04/12 06:28:08;;;;;;;6.50;1.13;;;25.30;53.00;;;;;;5048349;28;20192;-72
2021/04/12 06:31:31;;;;;;;6.37;1.43;;;24.40;54.10;;;;;;5059537;28;20237;-75
2021/04/12 06:34:19;;;;;;;8.73;1.93;;;23.90;55.20;;;;;;5032081;28;20599;-72
2021/04/12 06:37:00;;;;;;;8.60;1.50;;;24.00;55.80;;;;;;5072279;28;20258;-75
2021/04/12 06:39:58;;;;;;;3.90;1.20;;;24.10;55.60;;;;;;5074512;28;20175;-72
2021/04/12 06:43:02;;;;;;;8.97;4.07;;;24.20;55.20;;;;;;5054480;28;20211;-70
2021/04/12 06:46:13;;;;;;;8.27;2.33;;;24.60;54.30;;;;;;5057335;28;20167;-73
2021/04/12 06:49:06;;;;;;;4.93;1.17;;;24.50;54.20;;;;;;5047121;28;20194;-75
2021/04/12 06:51:51;;;;;;;6.57;1.50;;;24.20;54.50;;;;;;5043953;28;20588;-75
2021/04/12 06:54:52;;;;;;;6.40;1.67;;;23.50;55.40;;;;;;5051980;28;20183;-76
2021/04/12 06:57:25;;;;;;;3.47;1.13;;;22.70;56.50;;;;;;5043401;28;20187;-76
2021/04/12 07:00:33;;;;;;;3.43;1.27;;;22.10;58.20;;;;;;5052874;28;20676;-76
2021/04/12 07:04:01;;;;;;;5.10;1.73;;;21.70;58.70;;;;;;5035149;28;20191;-77
2021/04/12 07:06:53;;;;;;;6.40;1.43;;;21.20;60.00;;;;;;5048285;28;20183;-78
2021/04/12 07:09:57;;;;;;;9.47;1.37;;;20.80;61.10;;;;;;5042754;28;20258;-71
2021/04/12 07:12:30;;;;;;;10.17;2.13;;;20.70;61.40;;;;;;5041014;28;20179;-77
2021/04/12 07:15:22;;;;;;;8.73;1.60;;;20.30;62.40;;;;;;5052991;28;20528;-76
2021/04/12 07:18:16;;;;;;;8.77;1.87;;;20.10;63.50;;;;;;5052617;28;20176;-76
2021/04/12 07:21:20;;;;;;;8.97;1.40;;;20.10;64.00;;;;;;5047047;28;20682;-78
2021/04/12 07:24:29;;;;;;;8.50;1.40;;;20.00;64.60;;;;;;5051710;28;20248;-79
2021/04/12 07:27:31;;;;;;;6.57;1.57;;;19.80;65.10;;;;;;5048703;28;20179;-80
2021/04/12 07:30:01;;;;;;;8.63;1.40;;;19.70;66.00;;;;;;5039132;28;20262;-79
2021/04/12 07:33:05;;;;;;;8.07;1.83;;;19.50;66.30;;;;;;5052074;28;20176;-74
2021/04/12 07:35:42;;;;;;;6.70;2.57;;;19.50;66.70;;;;;;5050979;28;20738;-74
2021/04/12 07:39:02;;;;;;;7.60;1.93;;;19.30;67.50;;;;;;5050006;28;20183;-79
2021/04/12 07:42:06;;;;;;;6.57;2.00;;;19.00;67.50;;;;;;4980840;28;20189;-75
2021/04/12 07:45:18;;;;;;;5.67;1.90;;;18.70;68.20;;;;;;5038905;28;20189;-73
2021/04/12 07:48:09;;;;;;;8.93;1.50;;;18.80;68.70;;;;;;5035340;28;20267;-72
2021/04/12 07:50:59;;;;;;;4.13;1.73;;;18.80;68.90;;;;;;5018175;28;20212;-74
2021/04/12 07:54:03;;;;;;;3.97;1.60;;;18.60;70.10;;;;;;4998876;28;20200;-77
2021/04/12 07:57:06;;;;;;;10.47;1.97;;;18.50;70.40;;;;;;5049361;28;20191;-76
2021/04/12 07:59:40;;;;;;;5.60;1.70;;;18.50;70.20;;;;;;5052179;28;20188;-77
2021/04/12 08:02:25;;;;;;;8.13;1.47;;;18.30;70.40;;;;;;5052064;28;20190;-69
2021/04/12 08:05:16;;;;;;;6.33;1.77;;;18.30;71.20;;;;;;5051277;28;20610;-75
2021/04/12 08:07:56;;;;;;;3.93;1.50;;;18.10;71.40;;;;;;5050675;28;20184;-75
2021/04/12 08:10:47;;;;;;;11.10;1.93;;;18.10;71.90;;;;;;5051564;28;20264;-80
2021/04/12 08:13:51;;;;;;;7.10;1.90;;;18.00;71.80;;;;;;5040335;28;20203;-74
2021/04/12 08:16:47;;;;;;;7.43;1.90;;;17.90;72.30;;;;;;5051090;28;20176;-79
2021/04/12 08:20:02;;;;;;;7.03;1.60;;;17.90;72.70;;;;;;5050756;28;20176;-79
2021/04/12 08:22:59;;;;;;;6.57;1.67;;;17.90;72.70;;;;;;5041315;28;20669;-78
2021/04/12 08:26:11;;;;;;;6.13;1.27;;;17.80;73.30;;;;;;5052138;28;20270;-79
2021/04/12 08:29:26;;;;;;;8.63;1.83;;;17.70;73.90;;;;;;5029359;28;20243;-78
2021/04/12 08:32:23;;;;;;;5.53;2.10;;;17.70;74.50;;;;;;5051632;28;20230;-78
2021/04/12 08:35:24;;;;;;;6.77;1.67;;;17.60;74.40;;;;;;5047652;28;20187;-74
2021/04/12 08:38:28;;;;;;;8.47;2.23;;;17.50;74.50;;;;;;5050952;28;20266;-77
2021/04/12 08:41:36;;;;;;;5.33;1.70;;;17.50;75.10;;;;;;5054584;28;20206;-77
2021/04/12 08:44:41;;;;;;;5.20;2.07;;;17.40;75.40;;;;;;5022097;28;20623;-75
2021/04/12 08:47:35;;;;;;;7.57;2.10;;;17.40;75.60;;;;;;5053983;28;20182;-77
2021/04/12 08:50:05;;;;;;;6.97;2.57;;;17.30;76.20;;;;;;5058783;28;20203;-78
2021/04/12 08:53:12;;;;;;;10.93;2.53;;;17.20;76.80;;;;;;5047511;28;20547;-79
2021/04/12 08:55:42;;;;;;;8.20;2.60;;;17.20;76.80;;;;;;5049589;28;20248;-80
2021/04/12 08:58:40;;;;;;;9.77;2.53;;;17.10;77.10;;;;;;5052047;28;20180;-77
2021/04/12 09:01:25;;;;;;;8.53;2.33;;;17.20;77.70;;;;;;5040442;28;20211;-79
2021/04/12 09:04:16;;;;;;;6.87;2.60;;;17.10;77.90;;;;;;5045376;28;20753;-79
2021/04/12 09:07:36;;;;;;;6.67;2.17;;;17.00;78.40;;;;;;5050358;28;20705;-78
2021/04/12 09:10:21;;;;;;;8.67;2.70;;;16.90;79.30;;;;;;4998308;28;20667;-78
2021/04/12 09:13:06;;;;;;;7.13;2.60;;;16.80;81.00;;;;;;4990362;28;20182;-77
2021/04/12 09:16:10;;;;;;;15.83;3.73;;;16.80;81.50;;;;;;5034174;28;20191;-78
2021/04/12 09:19:07;;;;;;;11.43;3.60;;;16.80;81.50;;;;;;5048220;28;20207;-79
2021/04/12 09:21:47;;;;;;;12.17;4.53;;;16.80;82.30;;;;;;5050396;28;20180;-79
2021/04/12 09:24:47;;;;;;;11.30;4.33;;;16.70;82.70;;;;;;5051663;28;20289;-76
2021/04/12 09:27:18;;;;;;;13.37;4.67;;;16.70;82.80;;;;;;5050916;28;20180;-71
2021/04/12 09:30:15;;;;;;;13.70;4.27;;;16.70;82.80;;;;;;5051230;28;20310;-77
2021/04/12 09:33:01;;;;;;;10.27;4.53;;;16.50;83.90;;;;;;5051176;28;20639;-75
2021/04/12 09:35:37;;;;;;;12.33;4.73;;;16.50;85.50;;;;;;5055535;28;20194;-76
2021/04/12 09:38:40;;;;;;;13.40;5.07;;;16.40;86.60;;;;;;5055201;28;20179;-69
2021/04/12 09:41:31;;;;;;;12.50;4.40;;;16.30;87.20;;;;;;5069595;28;20747;-69
2021/04/12 09:44:20;;;;;;;12.30;5.07;;;16.20;88.20;;;;;;5073923;28;20186;-69
2021/04/12 09:47:36;;;;;;;14.57;5.47;;;16.20;88.90;;;;;;5061805;28;20183;-69
2021/04/12 09:50:12;;;;;;;16.40;4.87;;;16.10;89.90;;;;;;5022245;28;20342;-69
2021/04/12 09:52:49;;;;;;;14.10;5.53;;;16.10;90.50;;;;;;5041864;28;20263;-71
2021/04/12 09:55:36;;;;;;;15.20;4.93;;;16.00;90.50;;;;;;5048619;28;20175;-73
2021/04/12 09:58:21;;;;;;;16.47;5.47;;;16.00;91.30;;;;;;5046549;28;20182;-70
2021/04/12 10:01:18;;;;;;;17.47;6.47;;;16.00;93.10;;;;;;5049792;28;20176;-71
2021/04/12 10:03:51;;;;;;;14.67;6.93;;;15.90;94.10;;;;;;5042471;28;20192;-72
2021/04/12 10:06:52;;;;;;;17.17;6.90;;;15.90;94.70;;;;;;5054868;28;20176;-76
2021/04/12 10:09:20;;;;;;;12.37;6.40;;;15.80;95.50;;;;;;5054843;28;20167;-76
2021/04/12 10:12:12;;;;;;;13.27;4.73;;;15.80;95.70;;;;;;5054600;28;20575;-76
2021/04/12 10:14:54;;;;;;;11.17;4.70;;;15.80;94.90;;;;;;5054210;28;20198;-69
2021/04/12 10:17:46;;;;;;;24.07;8.47;;;15.90;93.90;;;;;;5054637;28;20177;-70
2021/04/12 10:20:38;;;;;;;21.47;8.23;;;15.90;94.70;;;;;;5054033;28;20176;-74
2021/04/12 10:23:30;;;;;;;16.37;6.00;;;15.90;95.90;;;;;;5047521;28;20277;-77
2021/04/12 10:26:19;;;;;;;18.27;6.20;;;15.70;95.70;;;;;;5043708;28;20180;-79
2021/04/12 10:28:56;;;;;;;14.10;5.33;;;15.60;96.40;;;;;;5054479;28;20178;-72
2021/04/12 10:31:52;;;;;;;19.20;5.30;;;15.50;96.50;;;;;;5054011;28;20247;-77
2021/04/12 10:34:27;;;;;;;11.63;4.50;;;15.50;96.80;;;;;;5042271;28;20234;-73
2021/04/12 10:37:00;;;;;;;14.67;5.27;;;15.50;97.10;;;;;;5053802;28;20191;-75
2021/04/12 10:39:50;;;;;;;14.00;4.97;;;15.50;97.30;;;;;;5054228;28;20222;-72
2021/04/12 10:42:55;;;;;;;20.37;5.63;;;15.40;97.80;;;;;;5051719;28;20191;-76
2021/04/12 10:45:27;;;;;;;16.73;4.80;;;15.40;98.20;;;;;;5050819;28;20645;-74
2021/04/12 10:48:00;;;;;;;12.70;4.33;;;15.40;97.80;;;;;;5053979;28;20180;-77
2021/04/12 10:50:28;;;;;;;15.27;4.43;;;15.40;97.80;;;;;;5053588;28;20211;-78
2021/04/12 10:53:15;;;;;;;10.37;4.53;;;15.50;98.10;;;;;;5053886;28;20586;-79
2021/04/12 10:55:58;;;;;;;14.80;5.27;;;15.30;98.70;;;;;;5052255;28;20545;-76
2021/04/12 10:58:34;;;;;;;11.93;4.13;;;15.30;98.10;;;;;;5045444;28;20183;-77
2021/04/12 11:01:05;;;;;;;14.50;4.40;;;15.20;98.10;;;;;;5052897;28;20174;-77
2021/04/12 11:03:47;;;;;;;12.03;4.93;;;15.20;98.10;;;;;;5053856;28;20199;-76
2021/04/12 11:06:43;;;;;;;12.30;4.50;;;15.10;97.80;;;;;;5053673;28;20176;-78
2021/04/12 11:09:10;;;;;;;14.23;5.00;;;15.10;97.90;;;;;;5053620;28;20543;-71
2021/04/12 11:12:05;;;;;;;12.50;4.10;;;15.10;98.20;;;;;;5053576;28;20208;-70
2021/04/12 11:14:43;;;;;;;14.83;4.57;;;15.00;98.90;;;;;;5052931;28;20541;-79
2021/04/12 11:18:04;;;;;;;15.73;5.23;;;15.00;99.10;;;;;;5053630;28;20226;-77
2021/04/12 11:20:37;;;;;;;13.33;4.20;;;15.00;99.60;;;;;;5034966;28;20617;-71
2021/04/12 11:23:20;;;;;;;18.83;4.53;;;15.00;99.70;;;;;;5034007;28;20179;-73
2021/04/12 11:26:05;;;;;;;13.20;4.60;;;15.00;99.90;;;;;;5041866;28;20200;-78
2021/04/12 11:28:50;;;;;;;16.90;4.77;;;15.00;99.90;;;;;;5055947;28;20232;-75
2021/04/12 11:31:34;;;;;;;14.27;4.60;;;14.90;99.90;;;;;;5053322;28;20846;-76
2021/04/12 11:34:27;;;;;;;13.13;4.33;;;14.90;99.90;;;;;;5059092;28;20510;-76
2021/04/12 11:37:12;;;;;;;12.20;4.40;;;14.90;99.90;;;;;;5062675;28;20183;-81
2021/04/12 11:39:50;;;;;;;13.33;4.77;;;14.80;99.90;;;;;;5069404;28;20256;-76
2021/04/12 11:42:20;;;;;;;21.43;4.53;;;14.80;99.90;;;;;;5052430;28;20180;-75
2021/04/12 11:45:13;;;;;;;15.00;4.80;;;14.90;99.90;;;;;;5064842;28;20176;-73
2021/04/12 11:48:02;;;;;;;13.13;4.00;;;14.80;99.90;;;;;;5036710;28;20409;-73
2021/04/12 11:50:34;;;;;;;14.63;4.00;;;14.80;99.90;;;;;;5056243;28;20215;-82
2021/04/12 11:53:14;;;;;;;12.30;4.70;;;14.80;99.90;;;;;;5053084;28;20206;-79
2021/04/12 11:56:06;;;;;;;15.80;4.97;;;14.80;99.90;;;;;;5051036;28;20188;-73
2021/04/12 11:58:50;;;;;;;18.53;5.50;;;14.70;99.90;;;;;;5053614;28;20219;-69
2021/04/12 12:01:46;;;;;;;17.67;6.03;;;14.70;99.90;;;;;;5051943;28;20179;-71
2021/04/12 12:04:45;;;;;;;10.50;4.50;;;14.70;99.90;;;;;;5052005;28;20638;-73
2021/04/12 12:07:27;;;;;;;16.23;5.53;;;14.70;99.90;;;;;;5043785;28;20240;-73
2021/04/12 12:10:13;;;;;;;12.97;5.23;;;14.60;99.90;;;;;;5053484;28;20207;-75
2021/04/12 12:12:49;;;;;;;19.67;5.80;;;14.60;99.90;;;;;;5052867;28;20180;-76
2021/04/12 12:15:27;;;;;;;19.37;7.60;;;14.50;99.90;;;;;;5052096;28;20183;-78
2021/04/12 12:18:03;;;;;;;22.40;8.43;;;14.40;99.90;;;;;;5052708;28;20316;-74
2021/04/12 12:20:53;;;;;;;19.80;8.10;;;14.40;99.90;;;;;;5052550;28;20183;-74
2021/04/12 12:23:23;;;;;;;18.67;8.10;;;14.30;99.90;;;;;;5052346;28;20183;-81
2021/04/12 12:25:53;;;;;;;20.67;7.10;;;14.30;99.90;;;;;;5052264;28;20542;-78
2021/04/12 12:28:41;;;;;;;20.77;7.13;;;14.40;99.90;;;;;;5052229;28;20230;-82
2021/04/12 12:31:35;;;;;;;18.60;6.83;;;14.40;99.90;;;;;;5052269;28;20212;-73
2021/04/12 12:34:24;;;;;;;13.70;6.27;;;14.40;99.90;;;;;;5052933;28;20188;-76
2021/04/12 12:37:00;;;;;;;18.80;5.90;;;14.40;99.90;;;;;;5050042;28;20188;-78
2021/04/12 12:39:35;;;;;;;17.97;5.77;;;14.30;99.90;;;;;;5052639;28;20597;-75
2021/04/12 12:42:11;;;;;;;18.03;6.20;;;14.20;99.90;;;;;;5052341;28;20668;-81
2021/04/12 12:44:42;;;;;;;19.63;5.73;;;14.10;99.90;;;;;;5052521;28;20257;-81
2021/04/12 12:47:21;;;;;;;22.30;6.33;;;14.10;99.90;;;;;;5051825;28;20543;-75
2021/04/12 12:49:57;;;;;;;17.90;6.33;;;14.10;99.90;;;;;;5052538;28;20179;-74
2021/04/12 12:52:39;;;;;;;17.13;6.07;;;14.10;99.90;;;;;;5051131;28;20176;-76
2021/04/12 12:55:24;;;;;;;19.47;5.80;;;14.00;99.90;;;;;;5051005;28;20183;-76
2021/04/12 12:57:54;;;;;;;15.80;5.10;;;14.00;99.90;;;;;;5052913;28;20268;-71
2021/04/12 13:00:39;;;;;;;17.73;5.73;;;13.90;99.90;;;;;;5052208;28;20208;-71
2021/04/12 13:03:32;;;;;;;17.87;5.13;;;13.90;99.90;;;;;;5053108;28;20276;-74
2021/04/12 13:06:14;;;;;;;13.73;5.07;;;13.90;99.90;;;;;;5053069;28;20255;-76
2021/04/12 13:08:54;;;;;;;11.93;5.63;;;13.90;99.90;;;;;;5057140;28;20181;-77
2021/04/12 13:11:47;;;;;;;18.43;4.53;;;13.80;99.90;;;;;;5054564;28;20216;-76
2021/04/12 13:14:39;;;;;;;13.17;3.90;;;13.70;99.90;;;;;;5057354;28;20184;-74
2021/04/12 13:17:35;;;;;;;13.17;4.33;;;13.60;99.90;;;;;;5048306;28;20192;-73
2021/04/12 13:20:24;;;;;;;16.87;4.17;;;13.60;99.90;;;;;;5044259;28;20182;-75
2021/04/12 13:23:05;;;;;;;9.03;3.37;;;13.60;99.90;;;;;;5054976;28;20181;-71
2021/04/12 13:25:46;;;;;;;14.53;4.40;;;13.50;99.90;;;;;;5056702;28;20176;-78
2021/04/12 13:28:22;;;;;;;12.43;3.70;;;13.40;99.90;;;;;;5055942;28;20241;-77
2021/04/12 13:31:02;;;;;;;7.57;3.23;;;13.50;99.90;;;;;;5070897;28;20227;-70
2021/04/12 13:33:45;;;;;;;13.93;4.27;;;13.50;99.90;;;;;;5055666;28;20179;-74
2021/04/12 13:36:19;;;;;;;10.73;4.10;;;13.40;99.90;;;;;;5050207;28;20188;-69
2021/04/12 13:38:49;;;;;;;8.77;3.40;;;13.30;99.90;;;;;;5055869;28;20231;-71
2021/04/12 13:41:23;;;;;;;13.17;4.00;;;13.40;99.90;;;;;;5048285;28;20208;-77
2021/04/12 13:44:09;;;;;;;11.03;3.60;;;13.40;99.90;;;;;;5057954;28;20213;-70
2021/04/12 13:47:04;;;;;;;12.73;4.10;;;13.40;99.90;;;;;;5064761;28;20207;-69
2021/04/12 13:50:17;;;;;;;19.70;4.47;;;13.30;99.90;;;;;;5052717;28;20183;-77
2021/04/12 13:53:15;;;;;;;10.07;4.13;;;13.30;99.90;;;;;;5045200;28;20290;-78
2021/04/12 13:56:15;;;;;;;17.17;4.57;;;13.30;99.90;;;;;;5046499;28;20651;-81
2021/04/12 13:59:11;;;;;;;13.43;3.97;;;13.30;99.90;;;;;;5053660;28;20651;-70
2021/04/12 14:01:53;;;;;;;10.47;4.13;;;13.20;99.90;;;;;;5051235;28;20200;-77
2021/04/12 14:04:55;;;;;;;19.97;4.10;;;13.20;99.90;;;;;;5050924;28;20176;-74
2021/04/12 14:07:30;;;;;;;16.50;3.73;;;13.20;99.90;;;;;;5039604;28;20226;-78
2021/04/12 14:10:10;;;;;;;19.00;4.63;;;13.20;99.90;;;;;;5055495;28;20199;-81
2021/04/12 14:12:49;;;;;;;12.80;4.07;;;13.20;99.90;;;;;;5056114;28;20532;-79
2021/04/12 14:15:24;;;;;;;11.97;4.13;;;13.20;99.90;;;;;;5055440;28;20176;-82
2021/04/12 14:18:05;;;;;;;16.90;4.17;;;13.20;99.90;;;;;;5048549;28;20180;-72
2021/04/12 14:20:47;;;;;;;10.33;3.47;;;13.20;99.90;;;;;;5048245;28;20208;-82
2021/04/12 14:23:27;;;;;;;12.30;3.50;;;13.30;99.90;;;;;;5053338;28;20176;-82
2021/04/12 14:26:02;;;;;;;8.77;3.10;;;13.30;99.90;;;;;;5055271;28;20212;-71
2021/04/12 14:28:37;;;;;;;11.57;3.33;;;13.30;99.90;;;;;;5051635;28;20175;-70
2021/04/12 14:31:08;;;;;;;9.37;3.20;;;13.10;99.90;;;;;;5050047;28;20213;-69
2021/04/12 14:33:41;;;;;;;12.17;3.43;;;13.10;99.90;;;;;;5048527;28;20270;-69